sensor_id;sensor_type;location;lat;lon;timestamp;P1;durP1;ratioP1;P2;durP2;ratioP2
1735;SDS011;865;53.672;10.250;2023-06-22T00:01:44;0.50;;;0.50;;
1735;SDS011;865;53.672;10.250;2023-06-22T00:04:11;0.80;;;0.80;;
1735;SDS011;865;53.672;10.250;2023-06-22T00:06:38;0.73;;;0.73;;
1735;SDS011;865;53.672;10.250;2023-06-22T00:09:04;0.80;;;0.80;;
1735;SDS011;865;53.672;10.250;2023-06-22T00:11:33;0.47;;;0.47;;
1735;SDS011;865;53.672;10.250;2023-06-22T00:13:59;0.73;;;0.73;;
1735;SDS011;865;53.672;10.250;2023-06-22T00:16:26;0.30;;;0.30;;
1735;SDS011;865;53.672;10.250;2023-06-22T00:18:52;0.63;;;0.63;;
1735;SDS011;865;53.672;10.250;2023-06-22T00:21:19;0.40;;;0.40;;
1735;SDS011;865;53.672;10.250;2023-06-22T00:23:46;0.57;;;0.57;;
1735;SDS011;865;53.672;10.250;2023-06-22T00:26:13;0.63;;;0.63;;
1735;SDS011;865;53.672;10.250;2023-06-22T00:28:40;0.47;;;0.47;;
1735;SDS011;865;53.672;10.250;2023-06-22T00:31:07;0.50;;;0.50;;
1735;SDS011;865;53.672;10.250;2023-06-22T00:33:33;0.83;;;0.83;;
1735;SDS011;865;53.672;10.250;2023-06-22T00:36:00;0.73;;;0.73;;
1735;SDS011;865;53.672;10.250;2023-06-22T00:38:29;0.60;;;0.60;;
1735;SDS011;865;53.672;10.250;2023-06-22T00:40:55;0.70;;;0.70;;
1735;SDS011;865;53.672;10.250;2023-06-22T00:43:22;0.83;;;0.83;;
1735;SDS011;865;53.672;10.250;2023-06-22T00:45:48;0.50;;;0.50;;
1735;SDS011;865;53.672;10.250;2023-06-22T00:48:15;0.50;;;0.50;;
1735;SDS011;865;53.672;10.250;2023-06-22T00:50:41;0.63;;;0.63;;
1735;SDS011;865;53.672;10.250;2023-06-22T00:53:08;0.80;;;0.80;;
1735;SDS011;865;53.672;10.250;2023-06-22T00:55:36;0.40;;;0.40;;
1735;SDS011;865;53.672;10.250;2023-06-22T00:58:05;1.00;;;1.00;;
1735;SDS011;865;53.672;10.250;2023-06-22T01:00:36;0.53;;;0.53;;
1735;SDS011;865;53.672;10.250;2023-06-22T01:03:04;0.20;;;0.20;;
1735;SDS011;865;53.672;10.250;2023-06-22T01:05:36;0.20;;;0.20;;
1735;SDS011;865;53.672;10.250;2023-06-22T01:11:22;0.20;;;0.20;;
1735;SDS011;865;53.672;10.250;2023-06-22T01:13:59;0.33;;;0.33;;
1735;SDS011;865;53.672;10.250;2023-06-22T01:16:34;0.10;;;0.10;;
1735;SDS011;865;53.672;10.250;2023-06-22T01:21:50;0.17;;;0.17;;
1735;SDS011;865;53.672;10.250;2023-06-22T01:30:11;0.30;;;0.30;;
1735;SDS011;865;53.672;10.250;2023-06-22T01:32:42;0.20;;;0.20;;
1735;SDS011;865;53.672;10.250;2023-06-22T01:35:10;0.10;;;0.10;;
1735;SDS011;865;53.672;10.250;2023-06-22T01:37:40;0.10;;;0.10;;
1735;SDS011;865;53.672;10.250;2023-06-22T01:40:10;0.10;;;0.10;;
1735;SDS011;865;53.672;10.250;2023-06-22T01:42:42;0.20;;;0.20;;
1735;SDS011;865;53.672;10.250;2023-06-22T01:45:09;0.20;;;0.20;;
1735;SDS011;865;53.672;10.250;2023-06-22T01:47:38;0.10;;;0.10;;
1735;SDS011;865;53.672;10.250;2023-06-22T01:50:06;0.10;;;0.10;;
1735;SDS011;865;53.672;10.250;2023-06-22T01:52:35;0.20;;;0.20;;
1735;SDS011;865;53.672;10.250;2023-06-22T01:55:01;0.30;;;0.30;;
1735;SDS011;865;53.672;10.250;2023-06-22T01:57:28;0.20;;;0.20;;
1735;SDS011;865;53.672;10.250;2023-06-22T02:00:03;0.20;;;0.20;;
1735;SDS011;865;53.672;10.250;2023-06-22T02:02:34;0.10;;;0.10;;
1735;SDS011;865;53.672;10.250;2023-06-22T02:05:06;0.10;;;0.10;;
1735;SDS011;865;53.672;10.250;2023-06-22T02:07:40;0.20;;;0.20;;
1735;SDS011;865;53.672;10.250;2023-06-22T02:10:14;0.20;;;0.20;;
1735;SDS011;865;53.672;10.250;2023-06-22T02:12:43;0.10;;;0.10;;
1735;SDS011;865;53.672;10.250;2023-06-22T02:15:11;0.20;;;0.20;;
1735;SDS011;865;53.672;10.250;2023-06-22T02:17:39;0.10;;;0.10;;
1735;SDS011;865;53.672;10.250;2023-06-22T02:20:12;0.30;;;0.30;;
1735;SDS011;865;53.672;10.250;2023-06-22T02:22:40;0.20;;;0.20;;
1735;SDS011;865;53.672;10.250;2023-06-22T02:25:07;0.40;;;0.40;;
1735;SDS011;865;53.672;10.250;2023-06-22T02:27:34;0.10;;;0.10;;
1735;SDS011;865;53.672;10.250;2023-06-22T02:30:01;0.10;;;0.10;;
1735;SDS011;865;53.672;10.250;2023-06-22T02:32:28;0.10;;;0.10;;
1735;SDS011;865;53.672;10.250;2023-06-22T02:34:55;0.10;;;0.10;;
1735;SDS011;865;53.672;10.250;2023-06-22T02:37:21;0.20;;;0.20;;
1735;SDS011;865;53.672;10.250;2023-06-22T02:39:51;0.20;;;0.20;;
1735;SDS011;865;53.672;10.250;2023-06-22T02:42:17;0.40;;;0.40;;
1735;SDS011;865;53.672;10.250;2023-06-22T02:44:47;0.20;;;0.20;;
1735;SDS011;865;53.672;10.250;2023-06-22T02:47:13;0.20;;;0.20;;
1735;SDS011;865;53.672;10.250;2023-06-22T02:49:40;0.10;;;0.10;;
1735;SDS011;865;53.672;10.250;2023-06-22T02:52:08;0.30;;;0.30;;
1735;SDS011;865;53.672;10.250;2023-06-22T02:54:34;0.10;;;0.10;;
1735;SDS011;865;53.672;10.250;2023-06-22T02:57:01;0.20;;;0.20;;
1735;SDS011;865;53.672;10.250;2023-06-22T02:59:30;0.20;;;0.20;;
1735;SDS011;865;53.672;10.250;2023-06-22T03:01:59;0.10;;;0.10;;
1735;SDS011;865;53.672;10.250;2023-06-22T03:04:27;0.13;;;0.13;;
1735;SDS011;865;53.672;10.250;2023-06-22T03:06:53;0.20;;;0.20;;
1735;SDS011;865;53.672;10.250;2023-06-22T03:09:20;0.30;;;0.30;;
1735;SDS011;865;53.672;10.250;2023-06-22T03:11:46;0.20;;;0.20;;
1735;SDS011;865;53.672;10.250;2023-06-22T03:14:13;0.40;;;0.40;;
1735;SDS011;865;53.672;10.250;2023-06-22T03:16:39;0.10;;;0.10;;
1735;SDS011;865;53.672;10.250;2023-06-22T03:19:07;0.10;;;0.10;;
1735;SDS011;865;53.672;10.250;2023-06-22T03:21:33;0.10;;;0.10;;
1735;SDS011;865;53.672;10.250;2023-06-22T03:24:00;0.20;;;0.20;;
1735;SDS011;865;53.672;10.250;2023-06-22T03:26:27;0.10;;;0.10;;
1735;SDS011;865;53.672;10.250;2023-06-22T03:28:54;0.20;;;0.20;;
1735;SDS011;865;53.672;10.250;2023-06-22T03:31:20;0.20;;;0.20;;
1735;SDS011;865;53.672;10.250;2023-06-22T03:33:48;0.10;;;0.10;;
1735;SDS011;865;53.672;10.250;2023-06-22T03:36:16;0.10;;;0.10;;
1735;SDS011;865;53.672;10.250;2023-06-22T03:38:47;0.20;;;0.20;;
1735;SDS011;865;53.672;10.250;2023-06-22T03:41:14;0.30;;;0.30;;
1735;SDS011;865;53.672;10.250;2023-06-22T03:43:41;0.20;;;0.20;;
1735;SDS011;865;53.672;10.250;2023-06-22T03:46:08;0.30;;;0.30;;
1735;SDS011;865;53.672;10.250;2023-06-22T03:48:35;0.30;;;0.30;;
1735;SDS011;865;53.672;10.250;2023-06-22T03:51:02;0.20;;;0.20;;
1735;SDS011;865;53.672;10.250;2023-06-22T03:53:32;0.10;;;0.10;;
1735;SDS011;865;53.672;10.250;2023-06-22T03:55:58;0.20;;;0.20;;
1735;SDS011;865;53.672;10.250;2023-06-22T03:58:25;0.20;;;0.20;;
1735;SDS011;865;53.672;10.250;2023-06-22T04:00:53;0.10;;;0.10;;
1735;SDS011;865;53.672;10.250;2023-06-22T04:03:19;0.10;;;0.10;;
1735;SDS011;865;53.672;10.250;2023-06-22T04:05:47;0.40;;;0.40;;
1735;SDS011;865;53.672;10.250;2023-06-22T04:08:14;0.20;;;0.20;;
1735;SDS011;865;53.672;10.250;2023-06-22T04:10:42;0.23;;;0.23;;
1735;SDS011;865;53.672;10.250;2023-06-22T04:13:08;0.30;;;0.30;;
1735;SDS011;865;53.672;10.250;2023-06-22T04:15:35;0.20;;;0.20;;
1735;SDS011;865;53.672;10.250;2023-06-22T04:18:02;0.20;;;0.20;;
1735;SDS011;865;53.672;10.250;2023-06-22T04:20:28;0.17;;;0.17;;
1735;SDS011;865;53.672;10.250;2023-06-22T04:22:55;0.20;;;0.20;;
1735;SDS011;865;53.672;10.250;2023-06-22T04:25:23;0.10;;;0.10;;
1735;SDS011;865;53.672;10.250;2023-06-22T04:27:49;0.20;;;0.20;;
1735;SDS011;865;53.672;10.250;2023-06-22T04:30:16;0.40;;;0.40;;
1735;SDS011;865;53.672;10.250;2023-06-22T04:32:44;0.20;;;0.20;;
1735;SDS011;865;53.672;10.250;2023-06-22T04:35:11;0.30;;;0.30;;
1735;SDS011;865;53.672;10.250;2023-06-22T04:37:38;0.30;;;0.30;;
1735;SDS011;865;53.672;10.250;2023-06-22T04:40:05;0.10;;;0.10;;
1735;SDS011;865;53.672;10.250;2023-06-22T04:42:34;0.10;;;0.10;;
1735;SDS011;865;53.672;10.250;2023-06-22T04:45:04;0.23;;;0.23;;
1735;SDS011;865;53.672;10.250;2023-06-22T04:47:31;0.17;;;0.17;;
1735;SDS011;865;53.672;10.250;2023-06-22T04:49:57;0.10;;;0.10;;
1735;SDS011;865;53.672;10.250;2023-06-22T04:52:24;0.30;;;0.30;;
1735;SDS011;865;53.672;10.250;2023-06-22T04:54:51;0.20;;;0.20;;
1735;SDS011;865;53.672;10.250;2023-06-22T04:57:21;0.20;;;0.20;;
1735;SDS011;865;53.672;10.250;2023-06-22T04:59:59;0.20;;;0.20;;
1735;SDS011;865;53.672;10.250;2023-06-22T05:02:38;0.30;;;0.30;;
1735;SDS011;865;53.672;10.250;2023-06-22T05:05:05;0.27;;;0.27;;
1735;SDS011;865;53.672;10.250;2023-06-22T05:07:34;0.20;;;0.20;;
1735;SDS011;865;53.672;10.250;2023-06-22T05:10:02;0.10;;;0.10;;
1735;SDS011;865;53.672;10.250;2023-06-22T05:12:30;0.20;;;0.20;;
1735;SDS011;865;53.672;10.250;2023-06-22T05:14:56;0.10;;;0.10;;
1735;SDS011;865;53.672;10.250;2023-06-22T05:17:23;0.10;;;0.10;;
1735;SDS011;865;53.672;10.250;2023-06-22T05:19:49;0.20;;;0.20;;
1735;SDS011;865;53.672;10.250;2023-06-22T05:22:16;0.13;;;0.13;;
1735;SDS011;865;53.672;10.250;2023-06-22T05:24:43;0.20;;;0.20;;
1735;SDS011;865;53.672;10.250;2023-06-22T05:27:10;0.20;;;0.20;;
1735;SDS011;865;53.672;10.250;2023-06-22T05:29:37;0.20;;;0.20;;
1735;SDS011;865;53.672;10.250;2023-06-22T05:32:03;0.10;;;0.10;;
1735;SDS011;865;53.672;10.250;2023-06-22T05:34:30;0.20;;;0.20;;
1735;SDS011;865;53.672;10.250;2023-06-22T05:36:57;0.20;;;0.20;;
1735;SDS011;865;53.672;10.250;2023-06-22T05:39:26;0.20;;;0.20;;
1735;SDS011;865;53.672;10.250;2023-06-22T05:41:53;0.10;;;0.10;;
1735;SDS011;865;53.672;10.250;2023-06-22T05:44:19;0.20;;;0.20;;
1735;SDS011;865;53.672;10.250;2023-06-22T05:46:46;0.20;;;0.20;;
1735;SDS011;865;53.672;10.250;2023-06-22T05:49:14;0.20;;;0.20;;
1735;SDS011;865;53.672;10.250;2023-06-22T05:51:43;0.23;;;0.23;;
1735;SDS011;865;53.672;10.250;2023-06-22T05:54:10;0.30;;;0.30;;
1735;SDS011;865;53.672;10.250;2023-06-22T05:56:39;0.20;;;0.20;;
1735;SDS011;865;53.672;10.250;2023-06-22T05:59:06;0.20;;;0.20;;
1735;SDS011;865;53.672;10.250;2023-06-22T06:01:32;0.10;;;0.10;;
1735;SDS011;865;53.672;10.250;2023-06-22T06:04:04;0.20;;;0.20;;
1735;SDS011;865;53.672;10.250;2023-06-22T06:06:32;0.20;;;0.20;;
1735;SDS011;865;53.672;10.250;2023-06-22T06:09:03;0.10;;;0.10;;
1735;SDS011;865;53.672;10.250;2023-06-22T06:11:31;0.20;;;0.20;;
1735;SDS011;865;53.672;10.250;2023-06-22T06:13:57;0.10;;;0.10;;
1735;SDS011;865;53.672;10.250;2023-06-22T06:16:27;0.10;;;0.10;;
1735;SDS011;865;53.672;10.250;2023-06-22T06:18:53;0.10;;;0.10;;
1735;SDS011;865;53.672;10.250;2023-06-22T06:21:22;0.10;;;0.10;;
1735;SDS011;865;53.672;10.250;2023-06-22T06:23:49;0.10;;;0.10;;
1735;SDS011;865;53.672;10.250;2023-06-22T06:26:15;0.10;;;0.10;;
1735;SDS011;865;53.672;10.250;2023-06-22T06:28:43;0.17;;;0.17;;
1735;SDS011;865;53.672;10.250;2023-06-22T06:31:10;0.10;;;0.10;;
1735;SDS011;865;53.672;10.250;2023-06-22T06:33:38;0.20;;;0.20;;
1735;SDS011;865;53.672;10.250;2023-06-22T06:36:05;0.20;;;0.20;;
1735;SDS011;865;53.672;10.250;2023-06-22T06:38:33;0.13;;;0.13;;
1735;SDS011;865;53.672;10.250;2023-06-22T06:41:02;0.23;;;0.23;;
1735;SDS011;865;53.672;10.250;2023-06-22T06:43:28;0.10;;;0.10;;
1735;SDS011;865;53.672;10.250;2023-06-22T06:45:55;0.20;;;0.20;;
1735;SDS011;865;53.672;10.250;2023-06-22T06:48:21;0.10;;;0.10;;
1735;SDS011;865;53.672;10.250;2023-06-22T06:50:48;0.10;;;0.10;;
1735;SDS011;865;53.672;10.250;2023-06-22T06:53:16;0.20;;;0.20;;
1735;SDS011;865;53.672;10.250;2023-06-22T06:55:42;0.10;;;0.10;;
1735;SDS011;865;53.672;10.250;2023-06-22T06:58:09;0.10;;;0.10;;
1735;SDS011;865;53.672;10.250;2023-06-22T07:00:39;0.20;;;0.20;;
1735;SDS011;865;53.672;10.250;2023-06-22T07:03:05;0.10;;;0.10;;
1735;SDS011;865;53.672;10.250;2023-06-22T07:05:33;0.10;;;0.10;;
1735;SDS011;865;53.672;10.250;2023-06-22T07:08:00;0.20;;;0.20;;
1735;SDS011;865;53.672;10.250;2023-06-22T07:10:28;0.20;;;0.20;;
1735;SDS011;865;53.672;10.250;2023-06-22T07:12:56;0.10;;;0.10;;
1735;SDS011;865;53.672;10.250;2023-06-22T07:15:24;0.30;;;0.30;;
1735;SDS011;865;53.672;10.250;2023-06-22T07:17:50;0.27;;;0.27;;
1735;SDS011;865;53.672;10.250;2023-06-22T07:20:17;0.20;;;0.20;;
1735;SDS011;865;53.672;10.250;2023-06-22T07:22:45;0.10;;;0.10;;
1735;SDS011;865;53.672;10.250;2023-06-22T07:25:12;0.40;;;0.40;;
1735;SDS011;865;53.672;10.250;2023-06-22T07:27:44;0.10;;;0.10;;
1735;SDS011;865;53.672;10.250;2023-06-22T07:30:32;0.10;;;0.10;;
1735;SDS011;865;53.672;10.250;2023-06-22T07:33:00;0.10;;;0.10;;
1735;SDS011;865;53.672;10.250;2023-06-22T07:35:30;0.20;;;0.20;;
1735;SDS011;865;53.672;10.250;2023-06-22T07:37:57;0.20;;;0.20;;
1735;SDS011;865;53.672;10.250;2023-06-22T07:40:24;0.17;;;0.17;;
1735;SDS011;865;53.672;10.250;2023-06-22T07:42:50;0.10;;;0.10;;
1735;SDS011;865;53.672;10.250;2023-06-22T07:45:20;0.10;;;0.10;;
1735;SDS011;865;53.672;10.250;2023-06-22T07:47:47;0.20;;;0.20;;
1735;SDS011;865;53.672;10.250;2023-06-22T07:50:14;0.10;;;0.10;;
1735;SDS011;865;53.672;10.250;2023-06-22T07:52:41;0.20;;;0.20;;
1735;SDS011;865;53.672;10.250;2023-06-22T07:55:08;0.10;;;0.10;;
1735;SDS011;865;53.672;10.250;2023-06-22T07:57:34;0.10;;;0.10;;
1735;SDS011;865;53.672;10.250;2023-06-22T08:00:03;0.20;;;0.20;;
1735;SDS011;865;53.672;10.250;2023-06-22T08:02:41;0.10;;;0.10;;
1735;SDS011;865;53.672;10.250;2023-06-22T08:05:09;0.10;;;0.10;;
1735;SDS011;865;53.672;10.250;2023-06-22T08:07:48;0.10;;;0.10;;
1735;SDS011;865;53.672;10.250;2023-06-22T08:10:15;0.10;;;0.10;;
1735;SDS011;865;53.672;10.250;2023-06-22T08:12:42;0.10;;;0.10;;
1735;SDS011;865;53.672;10.250;2023-06-22T08:15:09;0.20;;;0.20;;
1735;SDS011;865;53.672;10.250;2023-06-22T08:17:39;0.10;;;0.10;;
1735;SDS011;865;53.672;10.250;2023-06-22T08:20:07;0.20;;;0.20;;
1735;SDS011;865;53.672;10.250;2023-06-22T08:22:42;0.10;;;0.10;;
1735;SDS011;865;53.672;10.250;2023-06-22T08:25:10;0.10;;;0.10;;
1735;SDS011;865;53.672;10.250;2023-06-22T08:27:37;0.20;;;0.20;;
1735;SDS011;865;53.672;10.250;2023-06-22T08:30:04;0.10;;;0.10;;
1735;SDS011;865;53.672;10.250;2023-06-22T08:32:32;0.10;;;0.10;;
1735;SDS011;865;53.672;10.250;2023-06-22T08:34:59;0.10;;;0.10;;
1735;SDS011;865;53.672;10.250;2023-06-22T08:37:26;0.13;;;0.13;;
1735;SDS011;865;53.672;10.250;2023-06-22T08:40:01;0.10;;;0.10;;
1735;SDS011;865;53.672;10.250;2023-06-22T08:42:34;0.20;;;0.20;;
1735;SDS011;865;53.672;10.250;2023-06-22T08:45:04;0.10;;;0.10;;
1735;SDS011;865;53.672;10.250;2023-06-22T08:47:32;0.10;;;0.10;;
1735;SDS011;865;53.672;10.250;2023-06-22T08:49:59;0.10;;;0.10;;
1735;SDS011;865;53.672;10.250;2023-06-22T08:52:25;0.10;;;0.10;;
1735;SDS011;865;53.672;10.250;2023-06-22T08:54:52;0.13;;;0.13;;
1735;SDS011;865;53.672;10.250;2023-06-22T08:57:20;0.10;;;0.10;;
1735;SDS011;865;53.672;10.250;2023-06-22T08:59:48;0.10;;;0.10;;
1735;SDS011;865;53.672;10.250;2023-06-22T09:02:14;0.27;;;0.27;;
1735;SDS011;865;53.672;10.250;2023-06-22T09:04:41;0.10;;;0.10;;
1735;SDS011;865;53.672;10.250;2023-06-22T09:07:08;0.10;;;0.10;;
1735;SDS011;865;53.672;10.250;2023-06-22T09:09:34;0.10;;;0.10;;
1735;SDS011;865;53.672;10.250;2023-06-22T09:12:01;0.10;;;0.10;;
1735;SDS011;865;53.672;10.250;2023-06-22T09:14:28;0.10;;;0.10;;
1735;SDS011;865;53.672;10.250;2023-06-22T09:16:55;0.10;;;0.10;;
1735;SDS011;865;53.672;10.250;2023-06-22T09:19:21;0.10;;;0.10;;
1735;SDS011;865;53.672;10.250;2023-06-22T09:21:48;0.10;;;0.10;;
1735;SDS011;865;53.672;10.250;2023-06-22T09:24:15;0.10;;;0.10;;
1735;SDS011;865;53.672;10.250;2023-06-22T09:26:41;0.10;;;0.10;;
1735;SDS011;865;53.672;10.250;2023-06-22T09:29:10;0.10;;;0.10;;
1735;SDS011;865;53.672;10.250;2023-06-22T09:31:37;0.10;;;0.10;;
1735;SDS011;865;53.672;10.250;2023-06-22T09:34:03;0.17;;;0.17;;
1735;SDS011;865;53.672;10.250;2023-06-22T09:36:30;0.10;;;0.10;;
1735;SDS011;865;53.672;10.250;2023-06-22T09:38:57;0.20;;;0.20;;
1735;SDS011;865;53.672;10.250;2023-06-22T09:41:25;0.20;;;0.20;;
1735;SDS011;865;53.672;10.250;2023-06-22T09:43:51;0.13;;;0.13;;
1735;SDS011;865;53.672;10.250;2023-06-22T09:46:21;0.20;;;0.20;;
1735;SDS011;865;53.672;10.250;2023-06-22T09:48:51;0.10;;;0.10;;
1735;SDS011;865;53.672;10.250;2023-06-22T09:51:18;0.10;;;0.10;;
1735;SDS011;865;53.672;10.250;2023-06-22T09:53:47;0.20;;;0.20;;
1735;SDS011;865;53.672;10.250;2023-06-22T09:56:14;0.10;;;0.10;;
1735;SDS011;865;53.672;10.250;2023-06-22T09:58:45;0.10;;;0.10;;
1735;SDS011;865;53.672;10.250;2023-06-22T10:01:13;0.20;;;0.20;;
1735;SDS011;865;53.672;10.250;2023-06-22T10:03:42;0.10;;;0.10;;
1735;SDS011;865;53.672;10.250;2023-06-22T10:06:09;0.10;;;0.10;;
1735;SDS011;865;53.672;10.250;2023-06-22T10:08:36;0.10;;;0.10;;
1735;SDS011;865;53.672;10.250;2023-06-22T10:11:03;0.10;;;0.10;;
1735;SDS011;865;53.672;10.250;2023-06-22T10:13:30;0.10;;;0.10;;
1735;SDS011;865;53.672;10.250;2023-06-22T10:15:57;0.10;;;0.10;;
1735;SDS011;865;53.672;10.250;2023-06-22T10:18:23;0.10;;;0.10;;
1735;SDS011;865;53.672;10.250;2023-06-22T10:20:50;0.10;;;0.10;;
1735;SDS011;865;53.672;10.250;2023-06-22T10:23:19;0.20;;;0.20;;
1735;SDS011;865;53.672;10.250;2023-06-22T10:25:46;0.10;;;0.10;;
1735;SDS011;865;53.672;10.250;2023-06-22T10:28:13;0.20;;;0.20;;
1735;SDS011;865;53.672;10.250;2023-06-22T10:30:40;0.10;;;0.10;;
1735;SDS011;865;53.672;10.250;2023-06-22T10:33:10;0.10;;;0.10;;
1735;SDS011;865;53.672;10.250;2023-06-22T10:35:40;0.00;;;0.00;;
1735;SDS011;865;53.672;10.250;2023-06-22T10:38:07;0.10;;;0.10;;
1735;SDS011;865;53.672;10.250;2023-06-22T10:40:34;0.00;;;0.00;;
1735;SDS011;865;53.672;10.250;2023-06-22T10:43:01;0.10;;;0.10;;
1735;SDS011;865;53.672;10.250;2023-06-22T10:45:27;0.10;;;0.10;;
1735;SDS011;865;53.672;10.250;2023-06-22T10:47:54;0.10;;;0.10;;
1735;SDS011;865;53.672;10.250;2023-06-22T10:50:21;0.10;;;0.10;;
1735;SDS011;865;53.672;10.250;2023-06-22T10:52:51;0.20;;;0.20;;
1735;SDS011;865;53.672;10.250;2023-06-22T10:55:17;0.10;;;0.10;;
1735;SDS011;865;53.672;10.250;2023-06-22T10:57:44;0.10;;;0.10;;
1735;SDS011;865;53.672;10.250;2023-06-22T11:00:13;0.20;;;0.20;;
1735;SDS011;865;53.672;10.250;2023-06-22T11:02:41;0.10;;;0.10;;
1735;SDS011;865;53.672;10.250;2023-06-22T11:05:09;0.10;;;0.10;;
1735;SDS011;865;53.672;10.250;2023-06-22T11:07:37;0.10;;;0.10;;
1735;SDS011;865;53.672;10.250;2023-06-22T11:10:07;0.00;;;0.00;;
1735;SDS011;865;53.672;10.250;2023-06-22T11:12:34;0.00;;;0.00;;
1735;SDS011;865;53.672;10.250;2023-06-22T11:15:03;0.10;;;0.10;;
1735;SDS011;865;53.672;10.250;2023-06-22T11:17:32;0.10;;;0.10;;
1735;SDS011;865;53.672;10.250;2023-06-22T11:19:59;0.10;;;0.10;;
1735;SDS011;865;53.672;10.250;2023-06-22T11:22:26;0.10;;;0.10;;
1735;SDS011;865;53.672;10.250;2023-06-22T11:24:53;0.10;;;0.10;;
1735;SDS011;865;53.672;10.250;2023-06-22T11:27:20;0.10;;;0.10;;
1735;SDS011;865;53.672;10.250;2023-06-22T11:29:46;0.10;;;0.10;;
1735;SDS011;865;53.672;10.250;2023-06-22T11:32:13;0.10;;;0.10;;
1735;SDS011;865;53.672;10.250;2023-06-22T11:34:40;0.10;;;0.10;;
1735;SDS011;865;53.672;10.250;2023-06-22T11:37:07;0.10;;;0.10;;
1735;SDS011;865;53.672;10.250;2023-06-22T11:39:34;0.10;;;0.10;;
1735;SDS011;865;53.672;10.250;2023-06-22T11:42:08;0.03;;;0.03;;
1735;SDS011;865;53.672;10.250;2023-06-22T11:44:35;0.00;;;0.00;;
1735;SDS011;865;53.672;10.250;2023-06-22T11:47:02;0.00;;;0.00;;
1735;SDS011;865;53.672;10.250;2023-06-22T11:49:30;0.10;;;0.10;;
1735;SDS011;865;53.672;10.250;2023-06-22T11:51:57;0.10;;;0.10;;
1735;SDS011;865;53.672;10.250;2023-06-22T11:54:24;0.20;;;0.20;;
1735;SDS011;865;53.672;10.250;2023-06-22T11:56:53;0.10;;;0.10;;
1735;SDS011;865;53.672;10.250;2023-06-22T11:59:19;0.10;;;0.10;;
1735;SDS011;865;53.672;10.250;2023-06-22T12:01:48;0.10;;;0.10;;
1735;SDS011;865;53.672;10.250;2023-06-22T12:04:16;0.10;;;0.10;;
1735;SDS011;865;53.672;10.250;2023-06-22T12:06:43;0.17;;;0.17;;
1735;SDS011;865;53.672;10.250;2023-06-22T12:09:10;0.20;;;0.20;;
1735;SDS011;865;53.672;10.250;2023-06-22T12:11:36;0.10;;;0.10;;
1735;SDS011;865;53.672;10.250;2023-06-22T12:14:03;0.10;;;0.10;;
1735;SDS011;865;53.672;10.250;2023-06-22T12:16:30;0.20;;;0.20;;
1735;SDS011;865;53.672;10.250;2023-06-22T12:18:57;0.00;;;0.00;;
1735;SDS011;865;53.672;10.250;2023-06-22T12:21:24;0.10;;;0.10;;
1735;SDS011;865;53.672;10.250;2023-06-22T12:23:50;0.10;;;0.10;;
1735;SDS011;865;53.672;10.250;2023-06-22T12:26:17;0.20;;;0.20;;
1735;SDS011;865;53.672;10.250;2023-06-22T12:28:44;0.17;;;0.17;;
1735;SDS011;865;53.672;10.250;2023-06-22T12:31:10;0.07;;;0.07;;
1735;SDS011;865;53.672;10.250;2023-06-22T12:33:37;0.10;;;0.10;;
1735;SDS011;865;53.672;10.250;2023-06-22T12:36:04;0.07;;;0.07;;
1735;SDS011;865;53.672;10.250;2023-06-22T12:38:31;0.17;;;0.17;;
1735;SDS011;865;53.672;10.250;2023-06-22T12:40:57;0.10;;;0.10;;
1735;SDS011;865;53.672;10.250;2023-06-22T12:43:24;0.10;;;0.10;;
1735;SDS011;865;53.672;10.250;2023-06-22T12:45:51;0.10;;;0.10;;
1735;SDS011;865;53.672;10.250;2023-06-22T12:48:17;0.10;;;0.10;;
1735;SDS011;865;53.672;10.250;2023-06-22T12:50:45;0.10;;;0.10;;
1735;SDS011;865;53.672;10.250;2023-06-22T12:53:12;0.20;;;0.20;;
1735;SDS011;865;53.672;10.250;2023-06-22T12:55:40;0.17;;;0.17;;
1735;SDS011;865;53.672;10.250;2023-06-22T12:58:07;0.00;;;0.00;;
1735;SDS011;865;53.672;10.250;2023-06-22T13:00:33;0.10;;;0.10;;
1735;SDS011;865;53.672;10.250;2023-06-22T13:03:00;0.20;;;0.20;;
1735;SDS011;865;53.672;10.250;2023-06-22T13:05:27;0.10;;;0.10;;
1735;SDS011;865;53.672;10.250;2023-06-22T13:07:54;0.20;;;0.20;;
1735;SDS011;865;53.672;10.250;2023-06-22T13:10:21;0.20;;;0.20;;
1735;SDS011;865;53.672;10.250;2023-06-22T13:12:47;0.10;;;0.10;;
1735;SDS011;865;53.672;10.250;2023-06-22T13:15:14;0.10;;;0.10;;
1735;SDS011;865;53.672;10.250;2023-06-22T13:17:41;0.10;;;0.10;;
1735;SDS011;865;53.672;10.250;2023-06-22T13:20:07;0.10;;;0.10;;
1735;SDS011;865;53.672;10.250;2023-06-22T13:22:35;0.10;;;0.10;;
1735;SDS011;865;53.672;10.250;2023-06-22T13:25:09;0.10;;;0.10;;
1735;SDS011;865;53.672;10.250;2023-06-22T13:27:39;0.10;;;0.10;;
1735;SDS011;865;53.672;10.250;2023-06-22T13:30:08;0.10;;;0.10;;
1735;SDS011;865;53.672;10.250;2023-06-22T13:32:39;0.07;;;0.07;;
1735;SDS011;865;53.672;10.250;2023-06-22T13:35:08;0.10;;;0.10;;
1735;SDS011;865;53.672;10.250;2023-06-22T13:37:36;0.10;;;0.10;;
1735;SDS011;865;53.672;10.250;2023-06-22T13:40:02;0.03;;;0.03;;
1735;SDS011;865;53.672;10.250;2023-06-22T13:42:32;0.10;;;0.10;;
1735;SDS011;865;53.672;10.250;2023-06-22T13:44:59;0.00;;;0.00;;
1735;SDS011;865;53.672;10.250;2023-06-22T13:47:26;0.10;;;0.10;;
1735;SDS011;865;53.672;10.250;2023-06-22T13:49:55;0.20;;;0.20;;
1735;SDS011;865;53.672;10.250;2023-06-22T13:52:23;0.10;;;0.10;;
1735;SDS011;865;53.672;10.250;2023-06-22T13:54:50;0.10;;;0.10;;
1735;SDS011;865;53.672;10.250;2023-06-22T13:57:16;0.20;;;0.20;;
1735;SDS011;865;53.672;10.250;2023-06-22T13:59:43;0.10;;;0.10;;
1735;SDS011;865;53.672;10.250;2023-06-22T14:02:09;0.10;;;0.10;;
1735;SDS011;865;53.672;10.250;2023-06-22T14:04:36;0.20;;;0.20;;
1735;SDS011;865;53.672;10.250;2023-06-22T14:07:03;0.10;;;0.10;;
1735;SDS011;865;53.672;10.250;2023-06-22T14:09:29;0.10;;;0.10;;
1735;SDS011;865;53.672;10.250;2023-06-22T14:11:57;0.10;;;0.10;;
1735;SDS011;865;53.672;10.250;2023-06-22T14:14:24;0.20;;;0.20;;
1735;SDS011;865;53.672;10.250;2023-06-22T14:16:51;0.20;;;0.20;;
1735;SDS011;865;53.672;10.250;2023-06-22T14:19:17;0.13;;;0.13;;
1735;SDS011;865;53.672;10.250;2023-06-22T14:21:45;0.20;;;0.20;;
1735;SDS011;865;53.672;10.250;2023-06-22T14:24:11;0.10;;;0.10;;
1735;SDS011;865;53.672;10.250;2023-06-22T14:26:38;0.00;;;0.00;;
1735;SDS011;865;53.672;10.250;2023-06-22T14:29:05;0.10;;;0.10;;
1735;SDS011;865;53.672;10.250;2023-06-22T14:31:32;0.10;;;0.10;;
1735;SDS011;865;53.672;10.250;2023-06-22T14:33:59;0.10;;;0.10;;
1735;SDS011;865;53.672;10.250;2023-06-22T14:36:26;0.00;;;0.00;;
1735;SDS011;865;53.672;10.250;2023-06-22T14:38:52;0.00;;;0.00;;
1735;SDS011;865;53.672;10.250;2023-06-22T14:41:19;0.00;;;0.00;;
1735;SDS011;865;53.672;10.250;2023-06-22T14:43:47;0.00;;;0.00;;
1735;SDS011;865;53.672;10.250;2023-06-22T14:46:17;0.10;;;0.10;;
1735;SDS011;865;53.672;10.250;2023-06-22T14:48:45;0.10;;;0.10;;
1735;SDS011;865;53.672;10.250;2023-06-22T14:51:12;0.17;;;0.17;;
1735;SDS011;865;53.672;10.250;2023-06-22T14:53:43;0.10;;;0.10;;
1735;SDS011;865;53.672;10.250;2023-06-22T14:56:12;0.10;;;0.10;;
1735;SDS011;865;53.672;10.250;2023-06-22T14:58:44;0.20;;;0.20;;
1735;SDS011;865;53.672;10.250;2023-06-22T15:01:13;0.20;;;0.20;;
1735;SDS011;865;53.672;10.250;2023-06-22T15:03:45;0.10;;;0.10;;
1735;SDS011;865;53.672;10.250;2023-06-22T15:06:12;0.10;;;0.10;;
1735;SDS011;865;53.672;10.250;2023-06-22T15:08:41;0.10;;;0.10;;
1735;SDS011;865;53.672;10.250;2023-06-22T15:11:08;0.20;;;0.20;;
1735;SDS011;865;53.672;10.250;2023-06-22T15:13:35;0.10;;;0.10;;
1735;SDS011;865;53.672;10.250;2023-06-22T15:16:07;0.17;;;0.17;;
1735;SDS011;865;53.672;10.250;2023-06-22T15:18:34;0.20;;;0.20;;
1735;SDS011;865;53.672;10.250;2023-06-22T15:21:02;0.30;;;0.30;;
1735;SDS011;865;53.672;10.250;2023-06-22T15:23:30;0.20;;;0.20;;
1735;SDS011;865;53.672;10.250;2023-06-22T15:25:57;0.10;;;0.10;;
1735;SDS011;865;53.672;10.250;2023-06-22T15:28:26;0.20;;;0.20;;
1735;SDS011;865;53.672;10.250;2023-06-22T15:30:52;0.10;;;0.10;;